createdAt,value
2018-01-29T00:01:48.818Z,102388.56
2018-01-29T00:04:18.254Z,102387.80
2018-01-29T00:06:48.320Z,102381.23
2018-01-29T00:09:18.428Z,102383.46
2018-01-29T00:11:48.095Z,102384.85
2018-01-29T00:14:17.261Z,102385.58
2018-01-29T00:16:46.392Z,102386.08
2018-01-29T00:19:15.829Z,102382.37
2018-01-29T00:21:44.980Z,102381.35
2018-01-29T00:24:14.100Z,102384.38
2018-01-29T00:26:44.832Z,102377.41
2018-01-29T00:29:14.058Z,102376.90
2018-01-29T00:31:43.390Z,102370.38
2018-01-29T00:34:12.914Z,102371.18
2018-01-29T00:36:42.136Z,102377.85
2018-01-29T00:39:11.314Z,102371.84
2018-01-29T00:41:40.924Z,102366.56
2018-01-29T00:44:10.087Z,102371.66
2018-01-29T00:46:39.216Z,102376.71
2018-01-29T00:49:08.854Z,102378.53
2018-01-29T00:51:38.050Z,102380.33
2018-01-29T00:54:07.269Z,102375.59
2018-01-29T00:56:36.790Z,102372.93
2018-01-29T00:59:06.347Z,102377.45
2018-01-29T01:01:35.577Z,102373.92
2018-01-29T01:04:06.032Z,102376.22
2018-01-29T01:06:35.270Z,102370.05
2018-01-29T01:09:05.447Z,102366.30
2018-01-29T01:11:34.872Z,102370.53
2018-01-29T01:14:06.374Z,102365.36
2018-01-29T01:16:36.803Z,102365.43
2018-01-29T01:19:06.262Z,102369.80
2018-01-29T01:21:35.362Z,102366.81
2018-01-29T01:24:05.380Z,102366.02
2018-01-29T01:26:34.924Z,102368.49
2018-01-29T01:29:04.326Z,102369.52
2018-01-29T01:31:33.457Z,102365.80
2018-01-29T01:34:05.006Z,102357.48
2018-01-29T01:36:34.293Z,102363.72
2018-01-29T01:39:03.665Z,102364.12
2018-01-29T01:41:34.093Z,102358.51
2018-01-29T01:44:04.014Z,102364.59
2018-01-29T01:46:33.132Z,102358.14
2018-01-29T01:49:02.775Z,102351.44
2018-01-29T01:51:31.931Z,102353.27
2018-01-29T01:54:01.091Z,102355.48
2018-01-29T01:56:30.671Z,102349.84
2018-01-29T01:58:59.784Z,102350.64
2018-01-29T02:01:28.977Z,102347.54
2018-01-29T02:03:58.474Z,102348.67
2018-01-29T02:06:27.620Z,102335.55
2018-01-29T02:08:56.762Z,102339.27
2018-01-29T02:11:26.269Z,102340.00
2018-01-29T02:13:55.439Z,102333.36
2018-01-29T02:16:24.592Z,102332.05
2018-01-29T02:18:55.328Z,102333.24
2018-01-29T02:21:24.489Z,102322.87
2018-01-29T02:23:53.639Z,102327.03
2018-01-29T02:26:23.122Z,102320.28
2018-01-29T02:28:52.226Z,102319.80
2018-01-29T02:31:21.368Z,102322.03
2018-01-29T02:33:50.821Z,102325.17
2018-01-29T02:36:20.079Z,102323.66
2018-01-29T02:38:49.219Z,102320.68
2018-01-29T02:41:18.621Z,102311.02
2018-01-29T02:43:47.752Z,102307.36
2018-01-29T02:46:17.036Z,102304.66
2018-01-29T02:48:46.558Z,102309.94
2018-01-29T02:51:15.786Z,102306.56
2018-01-29T02:53:45.138Z,102302.22
2018-01-29T02:56:15.754Z,102308.30
2018-01-29T02:58:45.167Z,102302.83
2018-01-29T03:01:14.283Z,102310.38
2018-01-29T03:03:44.807Z,102306.71
2018-01-29T03:06:14.045Z,102309.41
2018-01-29T03:08:43.432Z,102303.58
2018-01-29T03:11:12.888Z,102303.25
2018-01-29T03:13:42.286Z,102305.72
2018-01-29T03:16:11.599Z,102303.03
2018-01-29T03:18:41.221Z,102300.81
2018-01-29T03:21:10.423Z,102299.17
2018-01-29T03:23:39.701Z,102300.41
2018-01-29T03:26:09.176Z,102289.12
2018-01-29T03:28:38.352Z,102284.02
2018-01-29T03:31:07.624Z,102282.75
2018-01-29T03:33:37.126Z,102281.47
2018-01-29T03:36:06.506Z,102290.06
2018-01-29T03:38:35.606Z,102285.00
2018-01-29T03:41:05.270Z,102281.37
2018-01-29T03:43:34.484Z,102288.60
2018-01-29T03:46:04.377Z,102291.22
2018-01-29T03:48:33.783Z,102280.77
2018-01-29T03:51:03.134Z,102279.02
2018-01-29T03:53:32.308Z,102275.46
2018-01-29T03:56:03.084Z,102274.08
2018-01-29T03:59:34.590Z,102282.34
2018-01-29T04:02:05.602Z,102273.34
2018-01-29T04:04:34.733Z,102264.28
2018-01-29T04:07:04.196Z,102260.86
2018-01-29T04:09:33.731Z,102258.67
2018-01-29T04:12:03.800Z,102249.94
2018-01-29T04:14:33.159Z,102242.48
2018-01-29T04:17:03.544Z,102249.50
2018-01-29T04:19:32.706Z,102246.38
2018-01-29T04:22:03.792Z,102230.61
2018-01-29T04:24:33.249Z,102213.25
2018-01-29T04:27:02.618Z,102214.09
2018-01-29T04:29:31.713Z,102204.16
2018-01-29T04:32:02.218Z,102206.81
2018-01-29T04:34:31.388Z,102206.44
2018-01-29T04:37:00.518Z,102202.69
2018-01-29T04:39:30.990Z,102198.22
2018-01-29T04:42:00.214Z,102209.17
2018-01-29T04:44:29.451Z,102209.47
2018-01-29T04:46:59.134Z,102214.70
2018-01-29T04:49:28.819Z,102209.90
2018-01-29T04:51:57.938Z,102209.94
2018-01-29T04:54:27.419Z,102210.70
2018-01-29T04:56:57.697Z,102211.98
2018-01-29T04:59:27.460Z,102222.49
2018-01-29T05:01:58.113Z,102222.89
2018-01-29T05:04:27.214Z,102221.19
2018-01-29T05:06:56.329Z,102223.73
2018-01-29T05:09:25.921Z,102223.66
2018-01-29T05:11:55.010Z,102213.08
2018-01-29T05:14:24.161Z,102222.20
2018-01-29T05:16:55.651Z,102220.53
2018-01-29T05:19:24.791Z,102216.64
2018-01-29T05:21:54.038Z,102217.91
2018-01-29T05:24:23.589Z,102222.53
2018-01-29T05:26:52.753Z,102215.94
2018-01-29T05:29:21.917Z,102222.86
2018-01-29T05:31:51.343Z,102226.83
2018-01-29T05:34:20.539Z,102222.35
2018-01-29T05:36:49.899Z,102221.08
2018-01-29T05:39:19.619Z,102221.44
2018-01-29T05:41:48.753Z,102207.43
2018-01-29T05:44:17.965Z,102195.56
2018-01-29T05:46:47.470Z,102207.03
2018-01-29T05:49:16.726Z,102208.38
2018-01-29T05:51:45.919Z,102209.61
2018-01-29T05:54:15.495Z,102203.42
2018-01-29T05:56:45.845Z,102202.55
2018-01-29T05:59:15.452Z,102199.81
2018-01-29T06:01:44.835Z,102199.93
2018-01-29T06:04:14.041Z,102197.16
2018-01-29T06:06:43.225Z,102196.76
2018-01-29T06:09:13.695Z,102205.36
2018-01-29T06:11:42.988Z,102203.06
2018-01-29T06:14:12.121Z,102211.44
2018-01-29T06:16:42.742Z,102201.31
2018-01-29T06:19:11.903Z,102206.48
2018-01-29T06:21:42.701Z,102204.05
2018-01-29T06:24:11.898Z,102202.33
2018-01-29T06:26:41.112Z,102195.67
2018-01-29T06:29:10.523Z,102196.11
2018-01-29T06:31:39.711Z,102196.63
2018-01-29T06:34:08.911Z,102194.91
2018-01-29T06:36:38.349Z,102194.80
2018-01-29T06:39:07.840Z,102197.42
2018-01-29T06:41:36.984Z,102198.91
2018-01-29T06:44:06.943Z,102191.02
2018-01-29T06:46:36.089Z,102195.92
2018-01-29T06:49:06.151Z,102189.74
2018-01-29T06:51:35.657Z,102185.70
2018-01-29T06:54:05.684Z,102201.50
2018-01-29T06:56:35.159Z,102187.92
2018-01-29T06:59:05.959Z,102183.99
2018-01-29T07:01:35.145Z,102180.83
2018-01-29T07:04:06.108Z,102174.90
2018-01-29T07:06:35.658Z,102183.59
2018-01-29T07:09:05.675Z,102181.88
2018-01-29T07:11:34.872Z,102183.13
2018-01-29T07:14:06.579Z,102183.99
2018-01-29T07:16:36.882Z,102180.57
2018-01-29T07:19:06.092Z,102185.12
2018-01-29T07:21:35.551Z,102185.38
2018-01-29T07:24:05.399Z,102186.21
2018-01-29T07:26:34.587Z,102189.78
2018-01-29T07:29:04.260Z,102188.91
2018-01-29T07:31:33.396Z,102186.54
2018-01-29T07:34:03.836Z,102187.92
2018-01-29T07:36:33.298Z,102183.95
2018-01-29T07:39:04.083Z,102189.05
2018-01-29T07:41:33.704Z,102177.61
2018-01-29T07:44:04.417Z,102190.80
2018-01-29T07:46:34.928Z,102177.61
2018-01-29T07:49:05.367Z,102180.79
2018-01-29T07:51:36.167Z,102184.83
2018-01-29T07:54:05.968Z,102184.39
2018-01-29T07:56:35.173Z,102176.67
2018-01-29T07:59:05.783Z,102171.08
2018-01-29T08:01:34.983Z,102165.69
2018-01-29T08:04:05.377Z,102166.13
2018-01-29T08:06:34.919Z,102165.61
2018-01-29T08:09:06.059Z,102159.94
2018-01-29T08:11:35.227Z,102164.48
2018-01-29T08:14:05.998Z,102158.98
2018-01-29T08:16:35.135Z,102163.28
2018-01-29T08:19:05.296Z,102152.91
2018-01-29T08:21:34.867Z,102147.98
2018-01-29T08:24:05.661Z,102140.84
2018-01-29T08:26:34.772Z,102142.31
2018-01-29T08:29:04.565Z,102131.44
2018-01-29T08:31:33.713Z,102135.84
2018-01-29T08:34:04.004Z,102139.66
2018-01-29T08:36:33.586Z,102134.73
2018-01-29T08:39:05.124Z,102130.19
2018-01-29T08:41:34.554Z,102132.94
2018-01-29T08:44:06.176Z,102120.89
2018-01-29T08:46:35.642Z,102127.41
2018-01-29T08:49:05.735Z,102124.66
2018-01-29T08:51:35.240Z,102129.81
2018-01-29T08:54:06.567Z,102124.39
2018-01-29T08:56:35.905Z,102127.33
2018-01-29T08:59:05.427Z,102115.95
2018-01-29T09:01:34.591Z,102122.08
2018-01-29T09:04:05.055Z,102120.90
2018-01-29T09:06:34.487Z,102121.77
2018-01-29T09:09:04.195Z,102124.87
2018-01-29T09:11:33.498Z,102121.77
2018-01-29T09:14:04.072Z,102118.80
2018-01-29T09:16:33.249Z,102111.23
2018-01-29T09:19:03.388Z,102099.83
2018-01-29T09:21:32.864Z,102098.52
2018-01-29T09:24:02.831Z,102097.86
2018-01-29T09:26:32.055Z,102099.48
2018-01-29T09:29:01.889Z,102095.07
2018-01-29T09:31:31.137Z,102101.62
2018-01-29T09:34:01.347Z,102095.28
2018-01-29T09:36:30.980Z,102095.20
2018-01-29T09:39:00.973Z,102099.09
2018-01-29T09:41:30.260Z,102102.81
2018-01-29T09:43:59.788Z,102106.03
2018-01-29T09:46:28.917Z,102107.09
2018-01-29T09:48:58.369Z,102107.42
2018-01-29T09:51:27.889Z,102100.87
2018-01-29T09:53:57.158Z,102093.30
2018-01-29T09:56:26.560Z,102093.34
2018-01-29T09:58:57.663Z,102081.59
2018-01-29T10:01:27.019Z,102087.03
2018-01-29T10:03:56.206Z,102086.11
2018-01-29T10:06:25.639Z,102081.44
2018-01-29T10:08:54.776Z,102069.83
2018-01-29T10:11:23.959Z,102074.02
2018-01-29T10:13:53.407Z,102072.84
2018-01-29T10:16:22.662Z,102071.01
2018-01-29T10:18:51.812Z,102074.73
2018-01-29T10:21:21.299Z,102075.52
2018-01-29T10:23:51.042Z,102068.27
2018-01-29T10:26:20.187Z,102065.84
2018-01-29T10:28:49.949Z,102064.00
2018-01-29T10:31:19.408Z,102070.02
2018-01-29T10:33:48.620Z,102063.27
2018-01-29T10:36:18.167Z,102069.92
2018-01-29T10:38:48.504Z,102058.80
2018-01-29T10:41:18.314Z,102060.80
2018-01-29T10:43:47.775Z,102059.38
2018-01-29T10:46:16.915Z,102057.19
2018-01-29T10:48:48.124Z,102039.59
2018-01-29T10:51:18.241Z,102040.95
2018-01-29T10:53:49.429Z,102041.69
2018-01-29T10:56:18.599Z,102036.43
2018-01-29T10:58:49.527Z,102026.75
2018-01-29T11:01:22.751Z,102019.31
2018-01-29T11:03:53.356Z,102024.90
2018-01-29T11:06:22.546Z,102014.06
2018-01-29T11:08:52.009Z,102016.75
2018-01-29T11:11:21.602Z,102019.38
2018-01-29T11:13:50.760Z,102018.11
2018-01-29T11:16:19.983Z,102013.13
2018-01-29T11:18:50.486Z,102009.13
2018-01-29T11:21:19.824Z,102002.19
2018-01-29T11:23:49.073Z,101998.64
2018-01-29T11:26:19.566Z,102000.92
2018-01-29T11:28:49.940Z,101989.45
2018-01-29T11:31:19.167Z,101994.31
2018-01-29T11:33:49.664Z,101989.34
2018-01-29T11:36:18.837Z,101984.47
2018-01-29T11:38:48.054Z,101986.11
2018-01-29T11:41:17.532Z,101985.67
2018-01-29T11:43:46.963Z,101981.23
2018-01-29T11:46:16.207Z,101975.21
2018-01-29T11:48:46.706Z,101973.80
2018-01-29T11:51:15.915Z,101967.55
2018-01-29T11:53:45.057Z,101967.89
2018-01-29T11:56:15.029Z,101974.56
2018-01-29T11:58:47.141Z,101959.64
2018-01-29T12:01:16.300Z,101955.31
2018-01-29T12:03:48.876Z,101956.28
2018-01-29T12:06:18.091Z,101954.48
2018-01-29T12:08:47.363Z,101950.99
2018-01-29T12:11:16.849Z,101945.95
2018-01-29T12:13:45.964Z,101939.66
2018-01-29T12:16:15.211Z,101931.20
2018-01-29T12:18:44.854Z,101931.26
2018-01-29T12:21:14.165Z,101927.28
2018-01-29T12:23:45.459Z,101925.95
2018-01-29T12:26:16.146Z,101914.57
2018-01-29T12:28:46.561Z,101915.33
2018-01-29T12:31:15.830Z,101911.83
2018-01-29T12:33:45.388Z,101911.26
2018-01-29T12:36:14.519Z,101896.26
2018-01-29T12:38:44.295Z,101894.77
2018-01-29T12:41:14.084Z,101892.56
2018-01-29T12:43:43.367Z,101884.09
2018-01-29T12:46:12.855Z,101875.27
2018-01-29T12:48:42.232Z,101860.64
2018-01-29T12:51:11.450Z,101865.08
2018-01-29T12:53:41.309Z,101859.69
2018-01-29T12:56:10.912Z,101853.18
2018-01-29T12:58:40.145Z,101846.86
2018-01-29T13:01:09.607Z,101853.87
2018-01-29T13:03:38.795Z,101840.28
2018-01-29T13:06:08.079Z,101836.77
2018-01-29T13:08:38.600Z,101829.25
2018-01-29T13:11:07.748Z,101834.91
2018-01-29T13:13:36.927Z,101830.64
2018-01-29T13:16:06.102Z,101819.06
2018-01-29T13:18:35.246Z,101817.31
2018-01-29T13:21:04.718Z,101817.09
2018-01-29T13:23:34.167Z,101818.41
2018-01-29T13:26:06.639Z,101814.17
2018-01-29T13:28:35.926Z,101815.91
2018-01-29T13:31:05.503Z,101806.48
2018-01-29T13:33:35.074Z,101802.32
2018-01-29T13:36:06.711Z,101803.75
2018-01-29T13:38:36.575Z,101796.75
2018-01-29T13:41:05.731Z,101799.30
2018-01-29T13:43:34.883Z,101791.48
2018-01-29T13:46:06.599Z,101789.35
2018-01-29T13:48:35.779Z,101787.98
2018-01-29T13:51:09.004Z,101780.27
2018-01-29T13:53:39.743Z,101777.70
2018-01-29T13:56:09.141Z,101786.31
2018-01-29T13:58:38.562Z,101772.49
2018-01-29T14:01:08.109Z,101773.84
2018-01-29T14:03:37.265Z,101774.11
2018-01-29T14:06:06.488Z,101776.74
2018-01-29T14:08:36.095Z,101772.78
2018-01-29T14:11:05.532Z,101771.53
2018-01-29T14:13:34.879Z,101773.89
2018-01-29T14:16:06.139Z,101774.70
2018-01-29T14:18:35.330Z,101773.91
2018-01-29T14:21:04.878Z,101771.39
2018-01-29T14:23:34.972Z,101769.09
2018-01-29T14:26:05.690Z,101779.16
2018-01-29T14:28:35.235Z,101785.03
2018-01-29T14:31:05.127Z,101789.58
2018-01-29T14:33:34.369Z,101778.18
2018-01-29T14:36:04.630Z,101775.78
2018-01-29T14:38:36.080Z,101774.92
2018-01-29T14:41:05.656Z,101769.21
2018-01-29T14:43:34.851Z,101764.84
2018-01-29T14:46:05.161Z,101765.64
2018-01-29T14:48:34.748Z,101764.59
2018-01-29T14:51:04.361Z,101758.39
2018-01-29T14:53:33.822Z,101754.52
2018-01-29T14:56:04.065Z,101752.27
2018-01-29T14:58:34.424Z,101756.00
2018-01-29T15:01:04.481Z,101737.98
2018-01-29T15:03:33.945Z,101731.42
2018-01-29T15:06:04.390Z,101739.22
2018-01-29T15:08:33.872Z,101727.38
2018-01-29T15:11:03.665Z,101726.86
2018-01-29T15:13:32.966Z,101723.48
2018-01-29T15:16:05.427Z,101726.16
2018-01-29T15:18:35.349Z,101723.61
2018-01-29T15:21:07.066Z,101723.11
2018-01-29T15:23:37.098Z,101720.52
2018-01-29T15:26:08.093Z,101710.77
2018-01-29T15:28:37.303Z,101713.95
2018-01-29T15:31:07.792Z,101727.55
2018-01-29T15:33:37.078Z,101704.27
2018-01-29T15:36:06.299Z,101699.51
2018-01-29T15:38:37.883Z,101701.98
2018-01-29T15:41:10.253Z,101698.39
2018-01-29T15:43:40.130Z,101696.50
2018-01-29T15:46:10.137Z,101696.20
2018-01-29T15:48:39.542Z,101690.58
2018-01-29T15:51:08.768Z,101689.05
2018-01-29T15:53:38.267Z,101688.20
2018-01-29T15:56:07.924Z,101687.67
2018-01-29T15:58:37.122Z,101690.31
2018-01-29T16:01:06.681Z,101685.38
2018-01-29T16:03:35.867Z,101692.16
2018-01-29T16:06:06.308Z,101696.60
2018-01-29T16:08:35.907Z,101697.19
2018-01-29T16:11:05.435Z,101699.30
2018-01-29T16:13:34.731Z,101697.55
2018-01-29T16:16:05.346Z,101704.19
2018-01-29T16:18:34.636Z,101710.74
2018-01-29T16:21:04.086Z,101702.73
2018-01-29T16:23:34.004Z,101703.19
2018-01-29T16:26:05.806Z,101705.36
2018-01-29T16:28:35.044Z,101704.70
2018-01-29T16:31:04.507Z,101698.22
2018-01-29T16:33:34.109Z,101701.95
2018-01-29T16:36:06.292Z,101705.08
2018-01-29T16:38:35.649Z,101705.30
2018-01-29T16:41:04.891Z,101708.45
2018-01-29T16:43:35.419Z,101708.00
2018-01-29T16:46:05.763Z,101712.91
2018-01-29T16:51:17.741Z,101702.29
2018-01-29T16:53:48.229Z,101700.63
2018-01-29T16:56:17.978Z,101698.06
2018-01-29T16:58:47.740Z,101699.81
2018-01-29T17:01:22.918Z,101700.12
2018-01-29T17:03:53.422Z,101702.00
2018-01-29T17:06:22.741Z,101705.97
2018-01-29T17:08:54.518Z,101701.19
2018-01-29T17:11:23.949Z,101706.91
2018-01-29T17:13:54.749Z,101696.53
2018-01-29T17:16:24.463Z,101686.38
2018-01-29T17:18:53.643Z,101686.47
2018-01-29T17:21:22.896Z,101688.20
2018-01-29T17:23:53.500Z,101697.39
2018-01-29T17:26:24.150Z,101691.33
2018-01-29T17:28:54.048Z,101700.78
2018-01-29T17:31:25.448Z,101702.88
2018-01-29T17:33:55.626Z,101702.66
2018-01-29T17:36:25.202Z,101705.78
2018-01-29T17:38:54.706Z,101705.22
2018-01-29T17:41:23.846Z,101704.84
2018-01-29T17:43:53.093Z,101703.61
2018-01-29T17:46:22.617Z,101697.17
2018-01-29T17:48:51.790Z,101688.63
2018-01-29T17:51:20.899Z,101692.90
2018-01-29T17:53:50.501Z,101702.14
2018-01-29T17:56:19.850Z,101693.83
2018-01-29T17:58:49.196Z,101701.64
2018-01-29T18:01:18.643Z,101691.41
2018-01-29T18:03:47.946Z,101686.77
2018-01-29T18:06:17.415Z,101688.55
2018-01-29T18:08:49.760Z,101692.59
2018-01-29T18:11:18.960Z,101693.19
2018-01-29T18:13:53.517Z,101694.05
2018-01-29T18:16:27.561Z,101691.00
2018-01-29T18:18:56.983Z,101689.30
2018-01-29T18:21:26.310Z,101692.45
2018-01-29T18:23:55.626Z,101682.66
2018-01-29T18:26:24.761Z,101685.80
2018-01-29T18:28:54.400Z,101688.08
2018-01-29T18:31:23.511Z,101697.25
2018-01-29T18:33:52.769Z,101707.34
2018-01-29T18:36:22.805Z,101706.62
2018-01-29T18:38:52.121Z,101710.48
2018-01-29T18:41:21.374Z,101705.58
2018-01-29T18:43:51.923Z,101706.97
2018-01-29T18:46:21.260Z,101698.63
2018-01-29T18:48:52.572Z,101706.59
2018-01-29T18:51:22.449Z,101703.23
2018-01-29T18:53:51.591Z,101706.11
2018-01-29T18:56:21.763Z,101712.66
2018-01-29T19:01:14.664Z,101683.82
2018-01-29T19:03:44.280Z,101673.81
2018-01-29T19:06:13.746Z,101673.66
2018-01-29T19:08:43.196Z,101663.38
2018-01-29T19:11:12.473Z,101674.53
2018-01-29T19:13:42.132Z,101680.73
2018-01-29T19:16:11.304Z,101700.45
2018-01-29T19:18:40.560Z,101700.03
2018-01-29T19:21:10.481Z,101704.59
2018-01-29T19:23:39.727Z,101696.82
2018-01-29T19:26:08.877Z,101694.25
2018-01-29T19:28:38.328Z,101684.70
2018-01-29T19:31:07.547Z,101688.64
2018-01-29T19:33:36.775Z,101686.88
2018-01-29T19:36:10.076Z,101676.75
2018-01-29T19:38:39.261Z,101685.59
2018-01-29T19:41:09.202Z,101680.83
2018-01-29T19:43:38.736Z,101685.20
2018-01-29T19:46:07.864Z,101694.70
2018-01-29T19:48:37.059Z,101703.98
2018-01-29T19:51:06.548Z,101693.02
2018-01-29T19:53:35.728Z,101693.02
2018-01-29T19:56:06.614Z,101703.46
2018-01-29T19:58:36.233Z,101693.09
2018-01-29T20:01:06.092Z,101697.20
2018-01-29T20:03:35.328Z,101697.19
2018-01-29T20:06:05.690Z,101698.47
2018-01-29T20:08:34.839Z,101728.50
2018-01-29T20:11:04.327Z,101716.88
2018-01-29T20:13:33.826Z,101710.31
2018-01-29T20:16:04.340Z,101705.22
2018-01-29T20:18:33.562Z,101722.73
2018-01-29T20:21:05.212Z,101723.47
2018-01-29T20:23:34.548Z,101733.16
2018-01-29T20:26:06.796Z,101729.17
2018-01-29T20:28:37.722Z,101732.30
2018-01-29T20:31:08.011Z,101731.47
2018-01-29T20:33:37.233Z,101733.59
2018-01-29T20:36:06.725Z,101738.32
2018-01-29T20:38:35.910Z,101746.81
2018-01-29T20:41:05.240Z,101737.61
2018-01-29T20:43:34.675Z,101758.08
2018-01-29T20:46:04.590Z,101750.67
2018-01-29T20:48:34.029Z,101749.75
2018-01-29T20:51:05.066Z,101763.97
2018-01-29T20:53:34.208Z,101755.20
2018-01-29T20:56:04.339Z,101764.59
2018-01-29T20:58:33.959Z,101766.22
2018-01-29T21:01:04.106Z,101768.39
2018-01-29T21:03:33.232Z,101776.48
2018-01-29T21:06:03.742Z,101766.91
2018-01-29T21:08:33.390Z,101767.34
2018-01-29T21:11:02.932Z,101762.04
2018-01-29T21:16:01.929Z,101757.48
2018-01-29T21:18:31.184Z,101756.67
2018-01-29T21:21:00.672Z,101767.35
2018-01-29T21:23:29.838Z,101771.16
2018-01-29T21:25:59.017Z,101758.49
2018-01-29T21:28:28.584Z,101762.86
2018-01-29T21:30:57.824Z,101755.98
2018-01-29T21:33:26.967Z,101761.22
2018-01-29T21:35:57.027Z,101781.25
2018-01-29T21:38:26.354Z,101769.73
2018-01-29T21:40:55.800Z,101774.73
2018-01-29T21:43:25.220Z,101771.63
2018-01-29T21:45:54.363Z,101775.87
2018-01-29T21:48:23.572Z,101784.98
2018-01-29T21:50:52.969Z,101778.92
2018-01-29T21:53:22.226Z,101784.17
2018-01-29T21:55:52.008Z,101779.75
2018-01-29T21:58:22.428Z,101765.79
2018-01-29T22:00:58.720Z,101775.42
2018-01-29T22:03:31.186Z,101779.42
2018-01-29T22:06:00.822Z,101784.55
2018-01-29T22:08:30.082Z,101794.20
2018-01-29T22:10:59.629Z,101783.17
2018-01-29T22:13:29.220Z,101781.66
2018-01-29T22:15:58.921Z,101778.28
2018-01-29T22:18:28.704Z,101794.31
2018-01-29T22:20:59.735Z,101781.91
2018-01-29T22:23:28.844Z,101786.44
2018-01-29T22:25:58.404Z,101792.30
2018-01-29T22:28:27.568Z,101792.63
2018-01-29T22:30:57.042Z,101779.94
2018-01-29T22:33:26.689Z,101783.75
2018-01-29T22:35:56.236Z,101798.23
2018-01-29T22:38:25.388Z,101793.13
2018-01-29T22:40:54.639Z,101799.94
2018-01-29T22:43:24.016Z,101806.07
2018-01-29T22:45:54.504Z,101805.75
2018-01-29T22:48:23.992Z,101803.50
2018-01-29T22:50:53.086Z,101805.77
2018-01-29T22:53:22.262Z,101812.99
2018-01-29T22:55:52.932Z,101812.50
2018-01-29T22:58:22.315Z,101816.63
2018-01-29T23:00:51.624Z,101812.17
2018-01-29T23:03:21.127Z,101816.57
2018-01-29T23:05:50.249Z,101818.64
2018-01-29T23:08:19.382Z,101817.00
2018-01-29T23:10:48.841Z,101828.20
2018-01-29T23:13:18.047Z,101824.33
2018-01-29T23:15:47.216Z,101828.07
2018-01-29T23:18:16.552Z,101828.44
2018-01-29T23:20:46.012Z,101821.46
2018-01-29T23:23:15.250Z,101818.38
2018-01-29T23:25:44.799Z,101823.57
2018-01-29T23:28:14.311Z,101828.13
2018-01-29T23:30:43.932Z,101828.57
2018-01-29T23:33:13.386Z,101830.39
2018-01-29T23:35:42.528Z,101835.31
2018-01-29T23:38:11.912Z,101841.05
2018-01-29T23:40:41.380Z,101838.38
2018-01-29T23:43:10.478Z,101847.00
2018-01-29T23:45:39.615Z,101851.05
2018-01-29T23:48:09.057Z,101849.48
2018-01-29T23:50:38.180Z,101846.87
2018-01-29T23:53:07.314Z,101843.35
2018-01-29T23:55:36.443Z,101843.26
2018-01-29T23:58:06.277Z,101844.23
